Terminal Aerodrome Forecast
Issued by NWS

Home | Current Version | Previous Version | Graphics & Text | Print | Product List | Glossary On
Versions: 1 2 3 4 5 6 7 8 9 10 11 12 13 14 15
000
FTUS43 KBIS 261127
TAFDIK
TAF
KDIK 261127Z 2612/2712 19005KT P6SM SCT080
     FM261600 21012KT P6SM SCT060 BKN080
     FM261800 20012KT P6SM VCSH BKN060 OVC080
     FM270000 18012KT P6SM SCT050 BKN070
     FM270800 22006KT P6SM SCT070=

USA.gov is the U.S. government's official web portal to all federal, state and local government web resources and services.